Terminal Aerodrome Forecast
Issued by NWS

Current Version | Previous Version | Text Only | Print | Product List | Glossary On
Versions: 1 2 3 4 5 6 7 8 9 10 11 12 13 14 15 16 17 18 19
000
FTUS46 KMTR 170500
TAFSTS
TAF
KSTS 170520Z 1706/1806 15005KT P6SM SKC
     FM170900 00000KT P6SM SCT005
      TEMPO 1709/1713 BKN005
     FM171300 00000KT P6SM BKN005
     FM171700 00000KT P6SM FEW011=

USA.gov is the U.S. government's official web portal to all federal, state and local government web resources and services.